ITY1383 LIRF-LIMJ
Flight info
| Callsign | ITY1383 |
|---|---|
| Flight time | 0h 58m |
| Altitude | 32000 |
| Route | GILIO DCT ELB DCT BETEN M729 IDONA |
| Aircraft | A319/M-SDE3FGHIRWY/LB1 |
Departure
| Time | 2026-05-07 14:54 |
|---|---|
| Airport | Rome–Fiumicino Leonardo da Vinci International Airport (LIRF) |
Arrival
| Time | 2026-05-07 15:53 |
|---|---|
| Airport | Genoa Cristoforo Colombo Airport (LIMJ) |
| Time | Latitude | Longitude | Altitude | Speed | Heading |
|---|---|---|---|---|---|
| 2026-05-07 14:29 | 41.79689 | 12.25618 | 16 ft | 0 kts | 295° |
| 2026-05-07 14:46 | 41.79684 | 12.25633 | 16 ft | 3 kts | 295° |
| 2026-05-07 14:46 | 41.79676 | 12.25656 | 17 ft | 3 kts | 310° |
| 2026-05-07 14:46 | 41.79660 | 12.25671 | 15 ft | 3 kts | 355° |
| 2026-05-07 14:46 | 41.79647 | 12.25670 | 14 ft | 0 kts | 19° |
| 2026-05-07 14:49 | 41.79650 | 12.25671 | 14 ft | 0 kts | 19° |
| 2026-05-07 14:49 | 41.79656 | 12.25675 | 17 ft | 4 kts | 26° |
| 2026-05-07 14:50 | 41.79723 | 12.25718 | 14 ft | 14 kts | 25° |
| 2026-05-07 14:50 | 41.79816 | 12.25778 | 14 ft | 16 kts | 25° |
| 2026-05-07 14:50 | 41.79919 | 12.25853 | 14 ft | 18 kts | 22° |
| 2026-05-07 14:50 | 41.80037 | 12.25924 | 15 ft | 19 kts | 25° |
| 2026-05-07 14:51 | 41.80165 | 12.26003 | 16 ft | 21 kts | 25° |
| 2026-05-07 14:51 | 41.80302 | 12.26088 | 17 ft | 22 kts | 25° |
| 2026-05-07 14:51 | 41.80443 | 12.26169 | 16 ft | 18 kts | 14° |
| 2026-05-07 14:51 | 41.80529 | 12.26242 | 16 ft | 17 kts | 66° |
| 2026-05-07 14:52 | 41.80576 | 12.26410 | 18 ft | 21 kts | 70° |
| 2026-05-07 14:52 | 41.80629 | 12.26603 | 16 ft | 23 kts | 70° |
| 2026-05-07 14:52 | 41.80687 | 12.26813 | 14 ft | 25 kts | 69° |
| 2026-05-07 14:52 | 41.80736 | 12.26992 | 15 ft | 14 kts | 69° |
| 2026-05-07 14:53 | 41.80814 | 12.27038 | 13 ft | 15 kts | 343° |
| 2026-05-07 14:53 | 41.80900 | 12.26997 | 14 ft | 12 kts | 339° |
| 2026-05-07 14:53 | 41.80956 | 12.26951 | 13 ft | 9 kts | 293° |
| 2026-05-07 14:53 | 41.80941 | 12.26864 | 13 ft | 10 kts | 249° |
| 2026-05-07 14:54 | 41.80897 | 12.26705 | 14 ft | 44 kts | 250° |
| 2026-05-07 14:54 | 41.80689 | 12.25951 | 17 ft | 124 kts | 249° |
| 2026-05-07 14:54 | 41.80323 | 12.24609 | 111 ft | 173 kts | 252° |
| 2026-05-07 14:54 | 41.79910 | 12.23063 | 742 ft | 178 kts | 250° |
| 2026-05-07 14:55 | 41.79434 | 12.21540 | 1576 ft | 177 kts | 246° |
| 2026-05-07 14:55 | 41.78648 | 12.20201 | 2066 ft | 197 kts | 220° |
| 2026-05-07 14:55 | 41.77446 | 12.19070 | 2367 ft | 227 kts | 211° |
| 2026-05-07 14:55 | 41.76011 | 12.17914 | 2950 ft | 253 kts | 210° |
| 2026-05-07 14:56 | 41.74451 | 12.16671 | 3723 ft | 265 kts | 210° |
| 2026-05-07 14:56 | 41.72861 | 12.15374 | 4740 ft | 270 kts | 211° |
| 2026-05-07 14:56 | 41.71267 | 12.14016 | 5754 ft | 274 kts | 215° |
| 2026-05-07 14:56 | 41.70052 | 12.12061 | 6690 ft | 280 kts | 247° |
| 2026-05-07 14:57 | 41.69835 | 12.09488 | 7647 ft | 283 kts | 281° |
| 2026-05-07 14:57 | 41.70708 | 12.07146 | 8637 ft | 287 kts | 313° |
| 2026-05-07 14:57 | 41.72386 | 12.05687 | 9635 ft | 292 kts | 336° |
| 2026-05-07 14:57 | 41.74321 | 12.04751 | 10422 ft | 303 kts | 339° |
| 2026-05-07 14:58 | 41.76201 | 12.03297 | 10747 ft | 324 kts | 315° |
| 2026-05-07 14:58 | 41.77562 | 12.00849 | 11351 ft | 333 kts | 297° |
| 2026-05-07 14:58 | 41.78724 | 11.98150 | 12228 ft | 336 kts | 299° |
| 2026-05-07 14:58 | 41.79972 | 11.95480 | 13104 ft | 340 kts | 300° |
| 2026-05-07 14:59 | 41.81266 | 11.92813 | 13965 ft | 343 kts | 301° |
| 2026-05-07 14:59 | 41.82575 | 11.90128 | 14731 ft | 346 kts | 300° |
| 2026-05-07 14:59 | 41.83889 | 11.87411 | 15498 ft | 348 kts | 300° |
| 2026-05-07 14:59 | 41.85198 | 11.84669 | 16260 ft | 351 kts | 299° |
| 2026-05-07 15:00 | 41.86395 | 11.81818 | 17008 ft | 351 kts | 291° |
| 2026-05-07 15:00 | 41.87148 | 11.78764 | 17752 ft | 350 kts | 280° |
| 2026-05-07 15:00 | 41.87616 | 11.75507 | 18491 ft | 352 kts | 278° |
| 2026-05-07 15:00 | 41.88082 | 11.72276 | 19157 ft | 354 kts | 278° |
| 2026-05-07 15:01 | 41.88553 | 11.69069 | 19810 ft | 356 kts | 279° |
| 2026-05-07 15:01 | 41.89037 | 11.65799 | 20467 ft | 359 kts | 279° |
| 2026-05-07 15:01 | 41.89575 | 11.62515 | 21096 ft | 363 kts | 284° |
| 2026-05-07 15:01 | 41.90542 | 11.59355 | 21753 ft | 370 kts | 295° |
| 2026-05-07 15:02 | 41.92006 | 11.56478 | 22412 ft | 378 kts | 306° |
| 2026-05-07 15:02 | 41.93814 | 11.53889 | 23055 ft | 382 kts | 309° |
| 2026-05-07 15:02 | 41.95654 | 11.51298 | 23651 ft | 384 kts | 309° |
| 2026-05-07 15:02 | 41.97499 | 11.48686 | 24180 ft | 386 kts | 308° |
| 2026-05-07 15:03 | 41.99349 | 11.46063 | 24723 ft | 387 kts | 308° |
| 2026-05-07 15:03 | 42.01202 | 11.43428 | 25263 ft | 388 kts | 307° |
| 2026-05-07 15:03 | 42.03060 | 11.40786 | 25790 ft | 389 kts | 307° |
| 2026-05-07 15:03 | 42.04925 | 11.38134 | 26327 ft | 391 kts | 307° |
| 2026-05-07 15:04 | 42.06797 | 11.35468 | 26803 ft | 393 kts | 307° |
| 2026-05-07 15:04 | 42.08674 | 11.32788 | 27295 ft | 395 kts | 307° |
| 2026-05-07 15:04 | 42.10561 | 11.30090 | 27812 ft | 396 kts | 306° |
| 2026-05-07 15:04 | 42.12455 | 11.27384 | 28304 ft | 398 kts | 306° |
| 2026-05-07 15:05 | 42.14359 | 11.24668 | 28784 ft | 400 kts | 306° |
| 2026-05-07 15:05 | 42.16272 | 11.21937 | 29250 ft | 402 kts | 306° |
| 2026-05-07 15:05 | 42.18194 | 11.19190 | 29701 ft | 403 kts | 306° |
| 2026-05-07 15:05 | 42.20123 | 11.16431 | 30130 ft | 405 kts | 306° |
| 2026-05-07 15:06 | 42.22059 | 11.13657 | 30482 ft | 407 kts | 306° |
| 2026-05-07 15:06 | 42.24001 | 11.10867 | 30826 ft | 409 kts | 305° |
| 2026-05-07 15:06 | 42.25954 | 11.08058 | 31164 ft | 411 kts | 305° |
| 2026-05-07 15:06 | 42.27916 | 11.05231 | 31494 ft | 414 kts | 305° |
| 2026-05-07 15:07 | 42.29887 | 11.02392 | 31864 ft | 414 kts | 305° |
| 2026-05-07 15:07 | 42.31856 | 10.99560 | 31977 ft | 411 kts | 305° |
| 2026-05-07 15:07 | 42.33779 | 10.96810 | 31999 ft | 395 kts | 305° |
| 2026-05-07 15:07 | 42.35646 | 10.94137 | 31999 ft | 388 kts | 304° |
| 2026-05-07 15:08 | 42.39311 | 10.88844 | 32000 ft | 384 kts | 304° |
| 2026-05-07 15:08 | 42.42949 | 10.83555 | 31997 ft | 384 kts | 304° |
| 2026-05-07 15:09 | 42.46587 | 10.78264 | 31995 ft | 384 kts | 304° |
| 2026-05-07 15:09 | 42.50227 | 10.72970 | 31993 ft | 384 kts | 304° |
| 2026-05-07 15:10 | 42.53865 | 10.67673 | 32004 ft | 384 kts | 304° |
| 2026-05-07 15:10 | 42.57454 | 10.62444 | 31989 ft | 385 kts | 304° |
| 2026-05-07 15:11 | 42.61107 | 10.57129 | 32004 ft | 385 kts | 304° |
| 2026-05-07 15:11 | 42.64755 | 10.51801 | 31992 ft | 385 kts | 304° |
| 2026-05-07 15:12 | 42.68393 | 10.46461 | 31986 ft | 385 kts | 304° |
| 2026-05-07 15:12 | 42.72034 | 10.41154 | 31982 ft | 388 kts | 308° |
| 2026-05-07 15:13 | 42.76493 | 10.36985 | 32012 ft | 404 kts | 322° |
| 2026-05-07 15:13 | 42.81427 | 10.33295 | 31995 ft | 405 kts | 322° |
| 2026-05-07 15:14 | 42.86360 | 10.29579 | 31990 ft | 405 kts | 322° |
| 2026-05-07 15:14 | 42.91285 | 10.25854 | 31897 ft | 406 kts | 322° |
| 2026-05-07 15:15 | 42.93757 | 10.23978 | 31636 ft | 406 kts | 322° |
| 2026-05-07 15:15 | 42.96225 | 10.22104 | 31381 ft | 406 kts | 322° |
| 2026-05-07 15:15 | 42.98695 | 10.20233 | 31173 ft | 406 kts | 322° |
| 2026-05-07 15:15 | 43.01139 | 10.18378 | 30927 ft | 406 kts | 322° |
| 2026-05-07 15:16 | 43.03511 | 10.16576 | 30686 ft | 406 kts | 322° |
| 2026-05-07 15:16 | 43.05981 | 10.14701 | 30441 ft | 405 kts | 322° |
| 2026-05-07 15:16 | 43.08429 | 10.12846 | 30107 ft | 400 kts | 322° |
| 2026-05-07 15:16 | 43.10826 | 10.11033 | 29547 ft | 397 kts | 322° |
| 2026-05-07 15:17 | 43.13231 | 10.09212 | 29041 ft | 393 kts | 322° |
| 2026-05-07 15:17 | 43.15608 | 10.07404 | 28539 ft | 389 kts | 322° |
| 2026-05-07 15:17 | 43.17945 | 10.05618 | 28052 ft | 386 kts | 322° |
| 2026-05-07 15:17 | 43.20276 | 10.03826 | 27566 ft | 383 kts | 323° |
| 2026-05-07 15:18 | 43.22593 | 10.02043 | 27081 ft | 381 kts | 323° |
| 2026-05-07 15:18 | 43.24899 | 10.00269 | 26614 ft | 379 kts | 323° |
| 2026-05-07 15:18 | 43.27195 | 9.98511 | 26157 ft | 377 kts | 323° |
| 2026-05-07 15:18 | 43.29480 | 9.96758 | 25700 ft | 376 kts | 324° |
| 2026-05-07 15:19 | 43.31757 | 9.95006 | 25260 ft | 375 kts | 324° |
| 2026-05-07 15:19 | 43.34025 | 9.93260 | 24829 ft | 373 kts | 324° |
| 2026-05-07 15:19 | 43.36287 | 9.91522 | 24384 ft | 372 kts | 324° |
| 2026-05-07 15:19 | 43.38544 | 9.89787 | 23946 ft | 371 kts | 325° |
| 2026-05-07 15:20 | 43.40760 | 9.88081 | 23509 ft | 370 kts | 325° |
| 2026-05-07 15:20 | 43.43000 | 9.86356 | 23006 ft | 368 kts | 325° |
| 2026-05-07 15:20 | 43.45226 | 9.84641 | 22571 ft | 365 kts | 325° |
| 2026-05-07 15:20 | 43.47433 | 9.82939 | 22128 ft | 362 kts | 326° |
| 2026-05-07 15:21 | 43.49620 | 9.81251 | 21669 ft | 359 kts | 326° |
| 2026-05-07 15:21 | 43.51791 | 9.79571 | 21213 ft | 356 kts | 326° |
| 2026-05-07 15:21 | 43.53946 | 9.77902 | 20772 ft | 354 kts | 326° |
| 2026-05-07 15:21 | 43.56086 | 9.76245 | 20315 ft | 352 kts | 327° |
| 2026-05-07 15:22 | 43.58215 | 9.74593 | 19846 ft | 350 kts | 327° |
| 2026-05-07 15:22 | 43.60335 | 9.72942 | 19394 ft | 349 kts | 327° |
| 2026-05-07 15:22 | 43.62444 | 9.71299 | 18945 ft | 348 kts | 327° |
| 2026-05-07 15:22 | 43.64552 | 9.69659 | 18487 ft | 347 kts | 328° |
| 2026-05-07 15:23 | 43.66652 | 9.68024 | 18000 ft | 346 kts | 328° |
| 2026-05-07 15:23 | 43.68745 | 9.66396 | 17539 ft | 344 kts | 328° |
| 2026-05-07 15:23 | 43.70122 | 9.65328 | 17248 ft | 342 kts | 328° |
| 2026-05-07 15:23 | 43.72188 | 9.63722 | 16815 ft | 340 kts | 328° |
| 2026-05-07 15:24 | 43.74238 | 9.62121 | 16385 ft | 338 kts | 328° |
| 2026-05-07 15:24 | 43.76278 | 9.60525 | 15958 ft | 336 kts | 328° |
| 2026-05-07 15:24 | 43.78306 | 9.58939 | 15534 ft | 334 kts | 328° |
| 2026-05-07 15:24 | 43.80328 | 9.57356 | 15108 ft | 333 kts | 329° |
| 2026-05-07 15:25 | 43.82341 | 9.55780 | 14687 ft | 332 kts | 329° |
| 2026-05-07 15:25 | 43.84351 | 9.54207 | 14262 ft | 331 kts | 329° |
| 2026-05-07 15:25 | 43.86353 | 9.52638 | 13833 ft | 331 kts | 329° |
| 2026-05-07 15:25 | 43.88353 | 9.51069 | 13370 ft | 329 kts | 329° |
| 2026-05-07 15:26 | 43.90339 | 9.49510 | 12937 ft | 327 kts | 329° |
| 2026-05-07 15:26 | 43.92308 | 9.47964 | 12509 ft | 324 kts | 329° |
| 2026-05-07 15:26 | 43.94265 | 9.46425 | 12074 ft | 322 kts | 329° |
| 2026-05-07 15:26 | 43.96205 | 9.44896 | 11650 ft | 320 kts | 328° |
| 2026-05-07 15:27 | 43.98024 | 9.43227 | 11491 ft | 307 kts | 318° |
| 2026-05-07 15:27 | 43.99462 | 9.41130 | 11364 ft | 294 kts | 305° |
| 2026-05-07 15:27 | 44.00600 | 9.38845 | 11238 ft | 283 kts | 303° |
| 2026-05-07 15:27 | 44.01694 | 9.36639 | 11112 ft | 273 kts | 303° |
| 2026-05-07 15:28 | 44.02765 | 9.34506 | 10911 ft | 267 kts | 306° |
| 2026-05-07 15:28 | 44.04056 | 9.32698 | 10866 ft | 267 kts | 319° |
| 2026-05-07 15:28 | 44.05558 | 9.31087 | 10175 ft | 278 kts | 321° |
| 2026-05-07 15:28 | 44.07180 | 9.29654 | 9663 ft | 274 kts | 340° |
| 2026-05-07 15:29 | 44.09010 | 9.29493 | 9486 ft | 261 kts | 12° |
| 2026-05-07 15:29 | 44.10585 | 9.30690 | 9177 ft | 261 kts | 46° |
| 2026-05-07 15:29 | 44.11693 | 9.32664 | 8906 ft | 257 kts | 52° |
| 2026-05-07 15:29 | 44.12760 | 9.34635 | 8640 ft | 253 kts | 52° |
| 2026-05-07 15:30 | 44.13942 | 9.36394 | 8381 ft | 246 kts | 30° |
| 2026-05-07 15:30 | 44.15524 | 9.37047 | 8133 ft | 235 kts | 356° |
| 2026-05-07 15:30 | 44.17038 | 9.36440 | 7911 ft | 225 kts | 324° |
| 2026-05-07 15:30 | 44.18288 | 9.35153 | 7697 ft | 223 kts | 320° |
| 2026-05-07 15:31 | 44.19523 | 9.33846 | 7483 ft | 223 kts | 321° |
| 2026-05-07 15:31 | 44.20758 | 9.32542 | 7268 ft | 223 kts | 321° |
| 2026-05-07 15:31 | 44.21993 | 9.31240 | 7050 ft | 222 kts | 321° |
| 2026-05-07 15:31 | 44.23226 | 9.29938 | 6857 ft | 222 kts | 320° |
| 2026-05-07 15:32 | 44.24456 | 9.28637 | 6652 ft | 223 kts | 322° |
| 2026-05-07 15:32 | 44.25699 | 9.27324 | 6449 ft | 225 kts | 322° |
| 2026-05-07 15:32 | 44.26947 | 9.26006 | 6241 ft | 225 kts | 322° |
| 2026-05-07 15:32 | 44.28193 | 9.24684 | 6027 ft | 225 kts | 322° |
| 2026-05-07 15:33 | 44.29439 | 9.23363 | 5764 ft | 225 kts | 322° |
| 2026-05-07 15:33 | 44.30688 | 9.22044 | 5487 ft | 226 kts | 323° |
| 2026-05-07 15:33 | 44.31937 | 9.20725 | 5219 ft | 225 kts | 322° |
| 2026-05-07 15:33 | 44.33138 | 9.19323 | 4936 ft | 226 kts | 311° |
| 2026-05-07 15:34 | 44.33967 | 9.17480 | 4662 ft | 224 kts | 289° |
| 2026-05-07 15:34 | 44.34471 | 9.15455 | 4516 ft | 219 kts | 287° |
| 2026-05-07 15:34 | 44.34927 | 9.13437 | 4255 ft | 218 kts | 285° |
| 2026-05-07 15:34 | 44.35370 | 9.11411 | 3957 ft | 218 kts | 284° |
| 2026-05-07 15:35 | 44.35813 | 9.09371 | 3656 ft | 220 kts | 284° |
| 2026-05-07 15:35 | 44.36258 | 9.07316 | 3355 ft | 221 kts | 283° |
| 2026-05-07 15:35 | 44.36702 | 9.05276 | 3070 ft | 217 kts | 284° |
| 2026-05-07 15:35 | 44.37129 | 9.03307 | 2746 ft | 206 kts | 284° |
| 2026-05-07 15:36 | 44.37534 | 9.01440 | 2458 ft | 195 kts | 284° |
| 2026-05-07 15:36 | 44.37915 | 8.99682 | 2192 ft | 183 kts | 283° |
| 2026-05-07 15:36 | 44.38273 | 8.98027 | 1940 ft | 173 kts | 282° |
| 2026-05-07 15:36 | 44.38610 | 8.96466 | 1702 ft | 164 kts | 282° |
| 2026-05-07 15:37 | 44.38929 | 8.94991 | 1468 ft | 153 kts | 284° |
| 2026-05-07 15:37 | 44.39228 | 8.93602 | 1263 ft | 144 kts | 285° |
| 2026-05-07 15:37 | 44.39510 | 8.92293 | 1056 ft | 138 kts | 285° |
| 2026-05-07 15:37 | 44.39784 | 8.91018 | 882 ft | 136 kts | 283° |
| 2026-05-07 15:38 | 44.40060 | 8.89761 | 670 ft | 135 kts | 274° |
| 2026-05-07 15:38 | 44.40377 | 8.88471 | 249 ft | 153 kts | 291° |
| 2026-05-07 15:38 | 44.40686 | 8.86953 | 583 ft | 170 kts | 281° |
| 2026-05-07 15:38 | 44.40972 | 8.85318 | 1078 ft | 175 kts | 275° |
| 2026-05-07 15:39 | 44.40917 | 8.83642 | 1823 ft | 173 kts | 251° |
| 2026-05-07 15:39 | 44.40407 | 8.82052 | 2232 ft | 191 kts | 239° |
| 2026-05-07 15:39 | 44.39802 | 8.80299 | 2558 ft | 206 kts | 232° |
| 2026-05-07 15:39 | 44.38618 | 8.79234 | 2971 ft | 206 kts | 189° |
| 2026-05-07 15:40 | 44.37296 | 8.79355 | 3006 ft | 186 kts | 158° |
| 2026-05-07 15:40 | 44.36250 | 8.80349 | 3006 ft | 182 kts | 130° |
| 2026-05-07 15:40 | 44.35683 | 8.81934 | 3009 ft | 187 kts | 103° |
| 2026-05-07 15:40 | 44.35637 | 8.83766 | 3004 ft | 190 kts | 97° |
| 2026-05-07 15:41 | 44.35137 | 8.85398 | 3059 ft | 184 kts | 140° |
| 2026-05-07 15:41 | 44.33974 | 8.86119 | 3252 ft | 188 kts | 168° |
| 2026-05-07 15:41 | 44.32697 | 8.85961 | 3254 ft | 187 kts | 191° |
| 2026-05-07 15:41 | 44.31430 | 8.85526 | 3238 ft | 190 kts | 190° |
| 2026-05-07 15:42 | 44.30140 | 8.85130 | 3239 ft | 190 kts | 190° |
| 2026-05-07 15:42 | 44.28854 | 8.84745 | 3240 ft | 188 kts | 188° |
| 2026-05-07 15:42 | 44.27515 | 8.84355 | 3122 ft | 214 kts | 189° |
| 2026-05-07 15:42 | 44.25996 | 8.83970 | 2561 ft | 219 kts | 189° |
| 2026-05-07 15:43 | 44.24547 | 8.83619 | 2554 ft | 207 kts | 188° |
| 2026-05-07 15:43 | 44.23140 | 8.83278 | 2559 ft | 204 kts | 189° |
| 2026-05-07 15:43 | 44.21747 | 8.82923 | 2558 ft | 203 kts | 190° |
| 2026-05-07 15:43 | 44.20338 | 8.82500 | 2788 ft | 214 kts | 191° |
| 2026-05-07 15:44 | 44.18902 | 8.82053 | 3024 ft | 209 kts | 191° |
| 2026-05-07 15:44 | 44.17503 | 8.81621 | 3009 ft | 205 kts | 190° |
| 2026-05-07 15:44 | 44.16115 | 8.81757 | 3009 ft | 203 kts | 155° |
| 2026-05-07 15:44 | 44.15054 | 8.83031 | 3014 ft | 207 kts | 125° |
| 2026-05-07 15:45 | 44.14569 | 8.85059 | 3021 ft | 239 kts | 92° |
| 2026-05-07 15:45 | 44.15089 | 8.87346 | 3010 ft | 260 kts | 55° |
| 2026-05-07 15:45 | 44.16399 | 8.89057 | 2986 ft | 248 kts | 38° |
| 2026-05-07 15:45 | 44.17717 | 8.90341 | 3006 ft | 219 kts | 34° |
| 2026-05-07 15:46 | 44.20304 | 8.92662 | 3006 ft | 224 kts | 34° |
| 2026-05-07 15:46 | 44.21610 | 8.93855 | 3006 ft | 224 kts | 35° |
| 2026-05-07 15:46 | 44.22890 | 8.95047 | 3009 ft | 225 kts | 36° |
| 2026-05-07 15:47 | 44.24183 | 8.96268 | 3009 ft | 224 kts | 36° |
| 2026-05-07 15:47 | 44.25471 | 8.97495 | 3007 ft | 223 kts | 36° |
| 2026-05-07 15:47 | 44.26727 | 8.98699 | 3004 ft | 220 kts | 38° |
| 2026-05-07 15:47 | 44.27979 | 8.99905 | 3004 ft | 217 kts | 39° |
| 2026-05-07 15:48 | 44.29241 | 9.01124 | 3007 ft | 217 kts | 38° |
| 2026-05-07 15:48 | 44.30483 | 9.02324 | 3005 ft | 217 kts | 39° |
| 2026-05-07 15:48 | 44.31713 | 9.03517 | 3010 ft | 218 kts | 38° |
| 2026-05-07 15:48 | 44.32928 | 9.04693 | 3024 ft | 206 kts | 37° |
| 2026-05-07 15:49 | 44.34110 | 9.05784 | 3004 ft | 197 kts | 32° |
| 2026-05-07 15:49 | 44.35447 | 9.06030 | 2988 ft | 196 kts | 348° |
| 2026-05-07 15:49 | 44.36568 | 9.05081 | 2914 ft | 189 kts | 307° |
| 2026-05-07 15:49 | 44.37088 | 9.03495 | 2740 ft | 178 kts | 281° |
| 2026-05-07 15:50 | 44.37441 | 9.01872 | 2515 ft | 172 kts | 282° |
| 2026-05-07 15:50 | 44.37784 | 9.00283 | 2282 ft | 170 kts | 281° |
| 2026-05-07 15:50 | 44.38129 | 8.98688 | 2037 ft | 169 kts | 280° |
| 2026-05-07 15:50 | 44.38462 | 8.97153 | 1813 ft | 159 kts | 280° |
| 2026-05-07 15:51 | 44.38777 | 8.95697 | 1581 ft | 153 kts | 281° |
| 2026-05-07 15:51 | 44.39075 | 8.94311 | 1365 ft | 150 kts | 281° |
| 2026-05-07 15:51 | 44.39373 | 8.92928 | 1162 ft | 147 kts | 283° |
| 2026-05-07 15:51 | 44.39663 | 8.91580 | 948 ft | 142 kts | 282° |
| 2026-05-07 15:52 | 44.39945 | 8.90275 | 772 ft | 138 kts | 284° |
| 2026-05-07 15:52 | 44.40218 | 8.89013 | 564 ft | 133 kts | 283° |
| 2026-05-07 15:52 | 44.40477 | 8.87765 | 408 ft | 134 kts | 283° |
| 2026-05-07 15:52 | 44.40737 | 8.86503 | 208 ft | 135 kts | 283° |
| 2026-05-07 15:53 | 44.40992 | 8.85267 | 27 ft | 124 kts | 284° |
| 2026-05-07 15:53 | 44.41179 | 8.84261 | 22 ft | 85 kts | 285° |
| 2026-05-07 15:53 | 44.41279 | 8.83833 | 21 ft | 21 kts | 308° |
| 2026-05-07 15:53 | 44.41352 | 8.83749 | 20 ft | 16 kts | 340° |
| 2026-05-07 15:54 | 44.41401 | 8.83755 | 20 ft | 16 kts | 35° |
| 2026-05-07 15:54 | 44.41403 | 8.83905 | 20 ft | 17 kts | 105° |
| 2026-05-07 15:54 | 44.41369 | 8.84084 | 22 ft | 20 kts | 105° |
| 2026-05-07 15:54 | 44.41330 | 8.84282 | 20 ft | 22 kts | 105° |
| 2026-05-07 15:55 | 44.41289 | 8.84496 | 20 ft | 24 kts | 104° |
| 2026-05-07 15:55 | 44.41245 | 8.84725 | 20 ft | 25 kts | 105° |
| 2026-05-07 15:55 | 44.41216 | 8.84884 | 20 ft | 9 kts | 81° |
| 2026-05-07 15:55 | 44.41276 | 8.84929 | 22 ft | 11 kts | 17° |
| 2026-05-07 15:56 | 44.41341 | 8.84991 | 20 ft | 12 kts | 70° |
| 2026-05-07 15:56 | 44.41394 | 8.85030 | 22 ft | 5 kts | 13° |
| 2026-05-07 15:56 | 44.41411 | 8.85036 | 20 ft | 2 kts | 15° |
| 2026-05-07 15:56 | 44.41420 | 8.85039 | 20 ft | 0 kts | 15° |